sensor_id;sensor_type;location;lat;lon;timestamp;temperature;humidity
4505;DHT22;2265;48.794;9.520;2024-02-26T00:00:45;9.10;98.00
4505;DHT22;2265;48.794;9.520;2024-02-26T00:03:13;9.20;98.00
4505;DHT22;2265;48.794;9.520;2024-02-26T00:05:40;9.20;98.00
4505;DHT22;2265;48.794;9.520;2024-02-26T00:08:09;9.20;98.00
4505;DHT22;2265;48.794;9.520;2024-02-26T00:10:36;9.10;98.00
4505;DHT22;2265;48.794;9.520;2024-02-26T00:13:04;9.10;98.00
4505;DHT22;2265;48.794;9.520;2024-02-26T00:15:33;9.10;98.00
4505;DHT22;2265;48.794;9.520;2024-02-26T00:18:00;9.00;98.00
4505;DHT22;2265;48.794;9.520;2024-02-26T00:20:28;9.00;98.00
4505;DHT22;2265;48.794;9.520;2024-02-26T00:22:55;9.00;98.00
4505;DHT22;2265;48.794;9.520;2024-02-26T00:25:24;9.00;98.00
4505;DHT22;2265;48.794;9.520;2024-02-26T00:27:51;8.90;98.00
4505;DHT22;2265;48.794;9.520;2024-02-26T00:30:28;8.80;98.00
4505;DHT22;2265;48.794;9.520;2024-02-26T00:32:55;8.90;98.00
4505;DHT22;2265;48.794;9.520;2024-02-26T00:35:22;9.00;98.00
4505;DHT22;2265;48.794;9.520;2024-02-26T00:37:50;9.10;98.00
4505;DHT22;2265;48.794;9.520;2024-02-26T00:40:17;9.10;98.00
4505;DHT22;2265;48.794;9.520;2024-02-26T00:42:46;9.10;98.00
4505;DHT22;2265;48.794;9.520;2024-02-26T00:45:13;9.00;98.00
4505;DHT22;2265;48.794;9.520;2024-02-26T00:47:42;8.90;98.00
4505;DHT22;2265;48.794;9.520;2024-02-26T00:50:11;8.90;98.00
4505;DHT22;2265;48.794;9.520;2024-02-26T00:52:39;8.90;98.00
4505;DHT22;2265;48.794;9.520;2024-02-26T00:55:07;8.90;98.00
4505;DHT22;2265;48.794;9.520;2024-02-26T00:57:34;8.80;98.00
4505;DHT22;2265;48.794;9.520;2024-02-26T01:00:05;8.80;98.00
4505;DHT22;2265;48.794;9.520;2024-02-26T01:02:34;8.80;98.00
4505;DHT22;2265;48.794;9.520;2024-02-26T01:05:01;8.60;98.00
4505;DHT22;2265;48.794;9.520;2024-02-26T01:07:29;8.50;98.00
4505;DHT22;2265;48.794;9.520;2024-02-26T01:10:01;8.60;98.00
4505;DHT22;2265;48.794;9.520;2024-02-26T01:12:28;8.50;98.00
4505;DHT22;2265;48.794;9.520;2024-02-26T01:14:55;8.50;98.00
4505;DHT22;2265;48.794;9.520;2024-02-26T01:17:24;8.50;98.00
4505;DHT22;2265;48.794;9.520;2024-02-26T01:19:51;8.40;98.00
4505;DHT22;2265;48.794;9.520;2024-02-26T01:22:19;8.30;98.00
4505;DHT22;2265;48.794;9.520;2024-02-26T01:24:46;8.30;98.00
4505;DHT22;2265;48.794;9.520;2024-02-26T01:27:14;8.40;98.00
4505;DHT22;2265;48.794;9.520;2024-02-26T01:29:41;8.50;98.00
4505;DHT22;2265;48.794;9.520;2024-02-26T01:32:08;8.60;98.00
4505;DHT22;2265;48.794;9.520;2024-02-26T01:34:37;8.60;98.00
4505;DHT22;2265;48.794;9.520;2024-02-26T01:37:04;8.70;98.00
4505;DHT22;2265;48.794;9.520;2024-02-26T01:39:31;8.60;98.00
4505;DHT22;2265;48.794;9.520;2024-02-26T01:41:58;8.60;98.00
4505;DHT22;2265;48.794;9.520;2024-02-26T01:44:26;8.70;98.00
4505;DHT22;2265;48.794;9.520;2024-02-26T01:46:54;8.70;98.00
4505;DHT22;2265;48.794;9.520;2024-02-26T01:49:21;8.70;98.00
4505;DHT22;2265;48.794;9.520;2024-02-26T01:51:50;8.50;98.00
4505;DHT22;2265;48.794;9.520;2024-02-26T01:54:18;8.70;98.00
4505;DHT22;2265;48.794;9.520;2024-02-26T01:56:45;8.70;98.00
4505;DHT22;2265;48.794;9.520;2024-02-26T01:59:12;8.60;98.00
4505;DHT22;2265;48.794;9.520;2024-02-26T02:01:44;8.50;98.00
4505;DHT22;2265;48.794;9.520;2024-02-26T02:04:12;8.50;98.00
4505;DHT22;2265;48.794;9.520;2024-02-26T02:06:41;8.40;98.00
4505;DHT22;2265;48.794;9.520;2024-02-26T02:09:11;8.30;98.00
4505;DHT22;2265;48.794;9.520;2024-02-26T02:11:38;8.30;98.00
4505;DHT22;2265;48.794;9.520;2024-02-26T02:14:06;8.40;98.00
4505;DHT22;2265;48.794;9.520;2024-02-26T02:16:33;8.40;98.00
4505;DHT22;2265;48.794;9.520;2024-02-26T02:19:03;8.30;98.00
4505;DHT22;2265;48.794;9.520;2024-02-26T02:21:32;8.20;98.00
4505;DHT22;2265;48.794;9.520;2024-02-26T02:23:59;8.20;98.00
4505;DHT22;2265;48.794;9.520;2024-02-26T02:26:26;8.30;98.00
4505;DHT22;2265;48.794;9.520;2024-02-26T02:28:54;8.20;98.00
4505;DHT22;2265;48.794;9.520;2024-02-26T02:31:21;8.20;98.00
4505;DHT22;2265;48.794;9.520;2024-02-26T02:33:48;8.30;98.00
4505;DHT22;2265;48.794;9.520;2024-02-26T02:36:16;8.30;98.00
4505;DHT22;2265;48.794;9.520;2024-02-26T02:38:50;8.30;98.00
4505;DHT22;2265;48.794;9.520;2024-02-26T02:41:20;8.20;98.00
4505;DHT22;2265;48.794;9.520;2024-02-26T02:43:47;8.10;98.00
4505;DHT22;2265;48.794;9.520;2024-02-26T02:46:14;8.00;98.00
4505;DHT22;2265;48.794;9.520;2024-02-26T02:48:41;8.00;98.00
4505;DHT22;2265;48.794;9.520;2024-02-26T02:51:09;8.00;98.00
4505;DHT22;2265;48.794;9.520;2024-02-26T02:53:36;8.00;98.00
4505;DHT22;2265;48.794;9.520;2024-02-26T02:56:05;8.10;98.00
4505;DHT22;2265;48.794;9.520;2024-02-26T02:58:34;8.10;98.00
4505;DHT22;2265;48.794;9.520;2024-02-26T03:01:01;8.10;98.00
4505;DHT22;2265;48.794;9.520;2024-02-26T03:03:29;8.10;98.00
4505;DHT22;2265;48.794;9.520;2024-02-26T03:05:56;8.00;98.00
4505;DHT22;2265;48.794;9.520;2024-02-26T03:08:23;8.00;98.00
4505;DHT22;2265;48.794;9.520;2024-02-26T03:10:51;8.10;98.00
4505;DHT22;2265;48.794;9.520;2024-02-26T03:13:20;8.20;98.00
4505;DHT22;2265;48.794;9.520;2024-02-26T03:15:47;8.20;98.00
4505;DHT22;2265;48.794;9.520;2024-02-26T03:18:17;8.20;98.00
4505;DHT22;2265;48.794;9.520;2024-02-26T03:20:45;8.20;98.00
4505;DHT22;2265;48.794;9.520;2024-02-26T03:23:13;8.40;98.00
4505;DHT22;2265;48.794;9.520;2024-02-26T03:25:42;8.30;98.00
4505;DHT22;2265;48.794;9.520;2024-02-26T03:28:09;8.20;98.00
4505;DHT22;2265;48.794;9.520;2024-02-26T03:30:41;8.20;98.00
4505;DHT22;2265;48.794;9.520;2024-02-26T03:33:15;8.30;98.00
4505;DHT22;2265;48.794;9.520;2024-02-26T03:35:43;8.40;98.00
4505;DHT22;2265;48.794;9.520;2024-02-26T03:38:10;8.30;98.00
4505;DHT22;2265;48.794;9.520;2024-02-26T03:40:37;8.10;98.00
4505;DHT22;2265;48.794;9.520;2024-02-26T03:43:04;8.10;98.00
4505;DHT22;2265;48.794;9.520;2024-02-26T03:45:33;8.10;98.00
4505;DHT22;2265;48.794;9.520;2024-02-26T03:48:01;8.30;98.00
4505;DHT22;2265;48.794;9.520;2024-02-26T03:50:28;8.20;98.00
4505;DHT22;2265;48.794;9.520;2024-02-26T03:52:56;8.10;98.00
4505;DHT22;2265;48.794;9.520;2024-02-26T03:55:23;8.00;98.00
4505;DHT22;2265;48.794;9.520;2024-02-26T03:57:52;7.90;98.00
4505;DHT22;2265;48.794;9.520;2024-02-26T04:00:19;7.90;98.00
4505;DHT22;2265;48.794;9.520;2024-02-26T04:02:47;7.90;98.00
4505;DHT22;2265;48.794;9.520;2024-02-26T04:05:15;7.90;98.00
4505;DHT22;2265;48.794;9.520;2024-02-26T04:07:44;7.70;98.00
4505;DHT22;2265;48.794;9.520;2024-02-26T04:10:14;7.80;98.00
4505;DHT22;2265;48.794;9.520;2024-02-26T04:12:41;7.80;98.00
4505;DHT22;2265;48.794;9.520;2024-02-26T04:15:10;7.90;98.00
4505;DHT22;2265;48.794;9.520;2024-02-26T04:17:37;7.80;98.00
4505;DHT22;2265;48.794;9.520;2024-02-26T04:20:06;7.80;98.00
4505;DHT22;2265;48.794;9.520;2024-02-26T04:22:37;7.80;98.00
4505;DHT22;2265;48.794;9.520;2024-02-26T04:25:05;7.80;98.00
4505;DHT22;2265;48.794;9.520;2024-02-26T04:27:32;7.90;98.00
4505;DHT22;2265;48.794;9.520;2024-02-26T04:29:59;7.90;98.00
4505;DHT22;2265;48.794;9.520;2024-02-26T04:32:26;7.90;98.00
4505;DHT22;2265;48.794;9.520;2024-02-26T04:34:55;7.70;98.00
4505;DHT22;2265;48.794;9.520;2024-02-26T04:37:23;7.60;98.00
4505;DHT22;2265;48.794;9.520;2024-02-26T04:39:53;7.70;98.00
4505;DHT22;2265;48.794;9.520;2024-02-26T04:42:20;7.70;98.00
4505;DHT22;2265;48.794;9.520;2024-02-26T04:44:47;7.70;98.00
4505;DHT22;2265;48.794;9.520;2024-02-26T04:47:14;7.80;98.00
4505;DHT22;2265;48.794;9.520;2024-02-26T04:49:41;7.80;98.00
4505;DHT22;2265;48.794;9.520;2024-02-26T04:52:08;7.70;98.00
4505;DHT22;2265;48.794;9.520;2024-02-26T04:54:35;7.80;98.00
4505;DHT22;2265;48.794;9.520;2024-02-26T04:57:04;7.60;98.00
4505;DHT22;2265;48.794;9.520;2024-02-26T04:59:31;7.60;98.00
4505;DHT22;2265;48.794;9.520;2024-02-26T05:01:58;7.70;98.00
4505;DHT22;2265;48.794;9.520;2024-02-26T05:04:26;7.70;98.00
4505;DHT22;2265;48.794;9.520;2024-02-26T05:06:53;7.60;98.00
4505;DHT22;2265;48.794;9.520;2024-02-26T05:09:20;7.70;98.00
4505;DHT22;2265;48.794;9.520;2024-02-26T05:11:47;7.60;98.00
4505;DHT22;2265;48.794;9.520;2024-02-26T05:14:16;7.50;98.00
4505;DHT22;2265;48.794;9.520;2024-02-26T05:16:43;7.50;98.00
4505;DHT22;2265;48.794;9.520;2024-02-26T05:19:10;7.40;98.00
4505;DHT22;2265;48.794;9.520;2024-02-26T05:21:37;7.20;98.00
4505;DHT22;2265;48.794;9.520;2024-02-26T05:24:04;7.30;98.00
4505;DHT22;2265;48.794;9.520;2024-02-26T05:26:32;7.30;98.00
4505;DHT22;2265;48.794;9.520;2024-02-26T05:28:59;7.30;98.00
4505;DHT22;2265;48.794;9.520;2024-02-26T05:31:28;7.20;98.00
4505;DHT22;2265;48.794;9.520;2024-02-26T05:33:55;7.10;98.00
4505;DHT22;2265;48.794;9.520;2024-02-26T05:36:23;7.20;98.00
4505;DHT22;2265;48.794;9.520;2024-02-26T05:38:51;7.20;98.00
4505;DHT22;2265;48.794;9.520;2024-02-26T05:41:18;7.30;98.00
4505;DHT22;2265;48.794;9.520;2024-02-26T05:43:49;7.30;98.00
4505;DHT22;2265;48.794;9.520;2024-02-26T05:46:16;7.30;98.00
4505;DHT22;2265;48.794;9.520;2024-02-26T05:48:47;7.30;98.00
4505;DHT22;2265;48.794;9.520;2024-02-26T05:51:14;7.30;98.00
4505;DHT22;2265;48.794;9.520;2024-02-26T05:53:42;7.10;98.00
4505;DHT22;2265;48.794;9.520;2024-02-26T05:56:09;7.00;98.00
4505;DHT22;2265;48.794;9.520;2024-02-26T05:58:36;7.10;98.00
4505;DHT22;2265;48.794;9.520;2024-02-26T06:01:04;7.10;98.00
4505;DHT22;2265;48.794;9.520;2024-02-26T06:03:31;7.20;98.00
4505;DHT22;2265;48.794;9.520;2024-02-26T06:05:59;7.10;98.00
4505;DHT22;2265;48.794;9.520;2024-02-26T06:08:26;7.00;98.00
4505;DHT22;2265;48.794;9.520;2024-02-26T06:10:53;7.10;98.00
4505;DHT22;2265;48.794;9.520;2024-02-26T06:13:20;7.20;98.00
4505;DHT22;2265;48.794;9.520;2024-02-26T06:15:47;7.20;98.00
4505;DHT22;2265;48.794;9.520;2024-02-26T06:18:14;7.20;98.00
4505;DHT22;2265;48.794;9.520;2024-02-26T06:20:42;7.10;98.00
4505;DHT22;2265;48.794;9.520;2024-02-26T06:23:10;7.00;98.00
4505;DHT22;2265;48.794;9.520;2024-02-26T06:25:37;7.10;98.00
4505;DHT22;2265;48.794;9.520;2024-02-26T06:28:05;7.20;98.00
4505;DHT22;2265;48.794;9.520;2024-02-26T06:30:32;7.20;98.00
4505;DHT22;2265;48.794;9.520;2024-02-26T06:32:59;7.20;98.00
4505;DHT22;2265;48.794;9.520;2024-02-26T06:35:27;7.10;98.00
4505;DHT22;2265;48.794;9.520;2024-02-26T06:37:54;7.20;98.00
4505;DHT22;2265;48.794;9.520;2024-02-26T06:40:24;7.20;98.00
4505;DHT22;2265;48.794;9.520;2024-02-26T06:42:51;7.20;98.00
4505;DHT22;2265;48.794;9.520;2024-02-26T06:45:19;7.20;98.00
4505;DHT22;2265;48.794;9.520;2024-02-26T06:47:46;7.10;98.00
4505;DHT22;2265;48.794;9.520;2024-02-26T06:50:13;7.10;98.00
4505;DHT22;2265;48.794;9.520;2024-02-26T06:52:40;7.10;98.00
4505;DHT22;2265;48.794;9.520;2024-02-26T06:55:08;7.10;98.00
4505;DHT22;2265;48.794;9.520;2024-02-26T06:57:39;7.10;98.00
4505;DHT22;2265;48.794;9.520;2024-02-26T07:00:07;7.10;98.00
4505;DHT22;2265;48.794;9.520;2024-02-26T07:02:34;7.00;98.00
4505;DHT22;2265;48.794;9.520;2024-02-26T07:05:01;7.00;98.00
4505;DHT22;2265;48.794;9.520;2024-02-26T07:07:29;7.10;98.00
4505;DHT22;2265;48.794;9.520;2024-02-26T07:09:56;7.00;98.00
4505;DHT22;2265;48.794;9.520;2024-02-26T07:12:23;7.00;98.00
4505;DHT22;2265;48.794;9.520;2024-02-26T07:14:51;7.00;98.00
4505;DHT22;2265;48.794;9.520;2024-02-26T07:17:19;7.10;98.00
4505;DHT22;2265;48.794;9.520;2024-02-26T07:19:46;7.00;98.00
4505;DHT22;2265;48.794;9.520;2024-02-26T07:22:13;7.10;98.00
4505;DHT22;2265;48.794;9.520;2024-02-26T07:24:40;7.10;98.00
4505;DHT22;2265;48.794;9.520;2024-02-26T07:27:08;7.00;98.00
4505;DHT22;2265;48.794;9.520;2024-02-26T07:29:35;7.00;98.00
4505;DHT22;2265;48.794;9.520;2024-02-26T07:32:04;7.10;98.00
4505;DHT22;2265;48.794;9.520;2024-02-26T07:34:32;7.20;98.00
4505;DHT22;2265;48.794;9.520;2024-02-26T07:36:59;7.20;98.00
4505;DHT22;2265;48.794;9.520;2024-02-26T07:39:26;7.20;98.00
4505;DHT22;2265;48.794;9.520;2024-02-26T07:41:53;7.30;98.00
4505;DHT22;2265;48.794;9.520;2024-02-26T07:44:20;7.40;98.00
4505;DHT22;2265;48.794;9.520;2024-02-26T07:46:47;7.60;98.00
4505;DHT22;2265;48.794;9.520;2024-02-26T07:49:18;7.90;98.00
4505;DHT22;2265;48.794;9.520;2024-02-26T07:51:48;7.80;98.00
4505;DHT22;2265;48.794;9.520;2024-02-26T07:54:15;7.80;98.00
4505;DHT22;2265;48.794;9.520;2024-02-26T07:56:45;7.80;98.00
4505;DHT22;2265;48.794;9.520;2024-02-26T07:59:12;8.10;98.00
4505;DHT22;2265;48.794;9.520;2024-02-26T08:01:39;8.30;98.00
4505;DHT22;2265;48.794;9.520;2024-02-26T08:04:07;8.30;98.00
4505;DHT22;2265;48.794;9.520;2024-02-26T08:06:35;8.40;98.00
4505;DHT22;2265;48.794;9.520;2024-02-26T08:09:02;8.40;98.00
4505;DHT22;2265;48.794;9.520;2024-02-26T08:11:30;8.40;98.00
4505;DHT22;2265;48.794;9.520;2024-02-26T08:13:57;8.30;98.00
4505;DHT22;2265;48.794;9.520;2024-02-26T08:16:26;8.30;98.00
4505;DHT22;2265;48.794;9.520;2024-02-26T08:18:53;8.20;98.00
4505;DHT22;2265;48.794;9.520;2024-02-26T08:21:20;8.20;98.00
4505;DHT22;2265;48.794;9.520;2024-02-26T08:23:49;8.20;98.00
4505;DHT22;2265;48.794;9.520;2024-02-26T08:26:16;8.30;98.00
4505;DHT22;2265;48.794;9.520;2024-02-26T08:28:46;8.40;98.00
4505;DHT22;2265;48.794;9.520;2024-02-26T08:31:14;8.50;98.00
4505;DHT22;2265;48.794;9.520;2024-02-26T08:33:41;8.60;98.00
4505;DHT22;2265;48.794;9.520;2024-02-26T08:36:09;8.70;98.00
4505;DHT22;2265;48.794;9.520;2024-02-26T08:38:36;8.70;98.00
4505;DHT22;2265;48.794;9.520;2024-02-26T08:41:05;8.70;98.00
4505;DHT22;2265;48.794;9.520;2024-02-26T08:43:32;8.60;98.00
4505;DHT22;2265;48.794;9.520;2024-02-26T08:45:59;8.60;98.00
4505;DHT22;2265;48.794;9.520;2024-02-26T08:48:26;8.60;98.00
4505;DHT22;2265;48.794;9.520;2024-02-26T08:50:53;8.70;98.00
4505;DHT22;2265;48.794;9.520;2024-02-26T08:53:20;8.80;98.00
4505;DHT22;2265;48.794;9.520;2024-02-26T08:55:48;9.00;98.00
4505;DHT22;2265;48.794;9.520;2024-02-26T08:58:16;9.20;98.00
4505;DHT22;2265;48.794;9.520;2024-02-26T09:00:43;9.30;98.00
4505;DHT22;2265;48.794;9.520;2024-02-26T09:03:10;9.40;98.00
4505;DHT22;2265;48.794;9.520;2024-02-26T09:05:39;9.40;98.00
4505;DHT22;2265;48.794;9.520;2024-02-26T09:08:06;9.30;98.00
4505;DHT22;2265;48.794;9.520;2024-02-26T09:10:35;9.30;98.00
4505;DHT22;2265;48.794;9.520;2024-02-26T09:13:02;9.20;98.00
4505;DHT22;2265;48.794;9.520;2024-02-26T09:15:30;9.40;98.00
4505;DHT22;2265;48.794;9.520;2024-02-26T09:17:58;9.40;98.00
4505;DHT22;2265;48.794;9.520;2024-02-26T09:20:25;9.40;98.00
4505;DHT22;2265;48.794;9.520;2024-02-26T09:22:52;9.40;98.00
4505;DHT22;2265;48.794;9.520;2024-02-26T09:25:19;9.50;98.00
4505;DHT22;2265;48.794;9.520;2024-02-26T09:27:46;9.60;98.00
4505;DHT22;2265;48.794;9.520;2024-02-26T09:30:14;9.80;98.00
4505;DHT22;2265;48.794;9.520;2024-02-26T09:32:46;9.90;98.00
4505;DHT22;2265;48.794;9.520;2024-02-26T09:35:14;10.00;98.00
4505;DHT22;2265;48.794;9.520;2024-02-26T09:37:41;10.10;98.00
4505;DHT22;2265;48.794;9.520;2024-02-26T09:40:10;10.00;98.00
4505;DHT22;2265;48.794;9.520;2024-02-26T09:42:42;10.00;98.00
4505;DHT22;2265;48.794;9.520;2024-02-26T09:45:15;10.00;98.00
4505;DHT22;2265;48.794;9.520;2024-02-26T09:47:45;10.00;98.00
4505;DHT22;2265;48.794;9.520;2024-02-26T09:50:14;10.00;98.00
4505;DHT22;2265;48.794;9.520;2024-02-26T09:52:44;10.00;98.00
4505;DHT22;2265;48.794;9.520;2024-02-26T09:55:11;10.00;98.00
4505;DHT22;2265;48.794;9.520;2024-02-26T09:57:38;10.10;98.00
4505;DHT22;2265;48.794;9.520;2024-02-26T10:00:10;10.10;98.00
4505;DHT22;2265;48.794;9.520;2024-02-26T10:02:41;10.20;98.00
4505;DHT22;2265;48.794;9.520;2024-02-26T10:05:12;10.30;98.00
4505;DHT22;2265;48.794;9.520;2024-02-26T10:07:42;10.40;98.00
4505;DHT22;2265;48.794;9.520;2024-02-26T10:10:10;10.80;98.00
4505;DHT22;2265;48.794;9.520;2024-02-26T10:12:38;11.00;98.00
4505;DHT22;2265;48.794;9.520;2024-02-26T10:15:05;11.20;98.00
4505;DHT22;2265;48.794;9.520;2024-02-26T10:17:33;11.30;98.00
4505;DHT22;2265;48.794;9.520;2024-02-26T10:20:16;11.30;98.00
4505;DHT22;2265;48.794;9.520;2024-02-26T10:22:48;11.40;98.00
4505;DHT22;2265;48.794;9.520;2024-02-26T10:25:15;11.40;98.00
4505;DHT22;2265;48.794;9.520;2024-02-26T10:27:42;11.30;98.00
4505;DHT22;2265;48.794;9.520;2024-02-26T10:30:17;11.30;98.00
4505;DHT22;2265;48.794;9.520;2024-02-26T10:32:45;11.60;98.00
4505;DHT22;2265;48.794;9.520;2024-02-26T10:35:13;11.90;98.00
4505;DHT22;2265;48.794;9.520;2024-02-26T10:37:42;12.20;98.00
4505;DHT22;2265;48.794;9.520;2024-02-26T10:40:10;12.30;98.00
4505;DHT22;2265;48.794;9.520;2024-02-26T10:42:37;12.30;98.00
4505;DHT22;2265;48.794;9.520;2024-02-26T10:45:05;12.50;98.00
4505;DHT22;2265;48.794;9.520;2024-02-26T10:47:33;12.50;98.00
4505;DHT22;2265;48.794;9.520;2024-02-26T10:50:02;12.50;98.00
4505;DHT22;2265;48.794;9.520;2024-02-26T10:52:31;12.60;98.00
4505;DHT22;2265;48.794;9.520;2024-02-26T10:55:02;12.50;98.00
4505;DHT22;2265;48.794;9.520;2024-02-26T10:57:33;12.60;98.00
4505;DHT22;2265;48.794;9.520;2024-02-26T11:00:03;13.00;98.00
4505;DHT22;2265;48.794;9.520;2024-02-26T11:02:33;13.20;98.00
4505;DHT22;2265;48.794;9.520;2024-02-26T11:05:02;13.40;98.00
4505;DHT22;2265;48.794;9.520;2024-02-26T11:07:34;13.50;98.00
4505;DHT22;2265;48.794;9.520;2024-02-26T11:10:04;13.60;98.00
4505;DHT22;2265;48.794;9.520;2024-02-26T11:12:33;13.50;98.00
4505;DHT22;2265;48.794;9.520;2024-02-26T11:15:03;13.40;98.00
4505;DHT22;2265;48.794;9.520;2024-02-26T11:17:31;13.30;98.00
4505;DHT22;2265;48.794;9.520;2024-02-26T11:20:00;13.20;98.00
4505;DHT22;2265;48.794;9.520;2024-02-26T11:22:28;13.20;98.00
4505;DHT22;2265;48.794;9.520;2024-02-26T11:24:56;13.20;98.00
4505;DHT22;2265;48.794;9.520;2024-02-26T11:27:31;13.20;98.00
4505;DHT22;2265;48.794;9.520;2024-02-26T11:30:01;13.20;98.00
4505;DHT22;2265;48.794;9.520;2024-02-26T11:32:30;13.40;98.00
4505;DHT22;2265;48.794;9.520;2024-02-26T11:35:01;13.40;98.00
4505;DHT22;2265;48.794;9.520;2024-02-26T11:37:28;13.30;98.00
4505;DHT22;2265;48.794;9.520;2024-02-26T11:39:59;13.30;98.00
4505;DHT22;2265;48.794;9.520;2024-02-26T11:42:27;13.40;98.00
4505;DHT22;2265;48.794;9.520;2024-02-26T11:44:55;13.50;98.00
4505;DHT22;2265;48.794;9.520;2024-02-26T11:47:27;13.70;98.00
4505;DHT22;2265;48.794;9.520;2024-02-26T11:49:54;14.00;98.00
4505;DHT22;2265;48.794;9.520;2024-02-26T11:52:22;14.10;98.00
4505;DHT22;2265;48.794;9.520;2024-02-26T11:54:50;14.10;98.00
4505;DHT22;2265;48.794;9.520;2024-02-26T11:57:25;14.20;98.00
4505;DHT22;2265;48.794;9.520;2024-02-26T12:00:10;14.10;98.00
4505;DHT22;2265;48.794;9.520;2024-02-26T12:02:40;14.10;98.00
4505;DHT22;2265;48.794;9.520;2024-02-26T12:05:07;14.20;98.00
4505;DHT22;2265;48.794;9.520;2024-02-26T12:07:39;14.10;98.00
4505;DHT22;2265;48.794;9.520;2024-02-26T12:10:24;14.00;98.00
4505;DHT22;2265;48.794;9.520;2024-02-26T12:12:58;13.90;98.00
4505;DHT22;2265;48.794;9.520;2024-02-26T12:15:32;13.80;98.00
4505;DHT22;2265;48.794;9.520;2024-02-26T12:18:01;13.80;98.00
4505;DHT22;2265;48.794;9.520;2024-02-26T12:20:29;13.80;98.00
4505;DHT22;2265;48.794;9.520;2024-02-26T12:22:59;13.80;98.00
4505;DHT22;2265;48.794;9.520;2024-02-26T12:25:27;13.90;98.00
4505;DHT22;2265;48.794;9.520;2024-02-26T12:27:55;14.10;98.00
4505;DHT22;2265;48.794;9.520;2024-02-26T12:30:22;14.50;98.00
4505;DHT22;2265;48.794;9.520;2024-02-26T12:32:53;15.00;98.00
4505;DHT22;2265;48.794;9.520;2024-02-26T12:35:23;15.40;98.00
4505;DHT22;2265;48.794;9.520;2024-02-26T12:37:51;15.80;98.00
4505;DHT22;2265;48.794;9.520;2024-02-26T12:40:19;16.20;98.00
4505;DHT22;2265;48.794;9.520;2024-02-26T12:42:47;16.50;98.00
4505;DHT22;2265;48.794;9.520;2024-02-26T12:45:15;16.80;98.00
4505;DHT22;2265;48.794;9.520;2024-02-26T12:47:44;16.90;98.00
4505;DHT22;2265;48.794;9.520;2024-02-26T12:50:15;16.90;98.00
4505;DHT22;2265;48.794;9.520;2024-02-26T12:52:45;17.00;98.00
4505;DHT22;2265;48.794;9.520;2024-02-26T12:55:15;17.10;98.00
4505;DHT22;2265;48.794;9.520;2024-02-26T12:57:44;17.00;98.00
4505;DHT22;2265;48.794;9.520;2024-02-26T13:00:14;16.80;98.00
4505;DHT22;2265;48.794;9.520;2024-02-26T13:02:42;16.50;98.00
4505;DHT22;2265;48.794;9.520;2024-02-26T13:05:11;16.30;98.00
4505;DHT22;2265;48.794;9.520;2024-02-26T13:07:42;16.10;98.00
4505;DHT22;2265;48.794;9.520;2024-02-26T13:10:10;16.20;98.00
4505;DHT22;2265;48.794;9.520;2024-02-26T13:12:43;16.60;98.00
4505;DHT22;2265;48.794;9.520;2024-02-26T13:15:16;16.60;98.00
4505;DHT22;2265;48.794;9.520;2024-02-26T13:17:44;16.60;98.00
4505;DHT22;2265;48.794;9.520;2024-02-26T13:20:11;16.60;98.00
4505;DHT22;2265;48.794;9.520;2024-02-26T13:22:39;16.30;98.00
4505;DHT22;2265;48.794;9.520;2024-02-26T13:25:08;16.10;98.00
4505;DHT22;2265;48.794;9.520;2024-02-26T13:27:35;15.90;98.00
4505;DHT22;2265;48.794;9.520;2024-02-26T13:30:08;15.70;98.00
4505;DHT22;2265;48.794;9.520;2024-02-26T13:32:37;15.40;98.00
4505;DHT22;2265;48.794;9.520;2024-02-26T13:35:05;15.20;98.00
4505;DHT22;2265;48.794;9.520;2024-02-26T13:37:34;15.10;98.00
4505;DHT22;2265;48.794;9.520;2024-02-26T13:40:07;15.00;98.00
4505;DHT22;2265;48.794;9.520;2024-02-26T13:42:38;14.90;98.00
4505;DHT22;2265;48.794;9.520;2024-02-26T13:45:06;14.80;98.00
4505;DHT22;2265;48.794;9.520;2024-02-26T13:47:33;14.60;98.00
4505;DHT22;2265;48.794;9.520;2024-02-26T13:50:01;14.80;98.00
4505;DHT22;2265;48.794;9.520;2024-02-26T13:52:28;14.80;98.00
4505;DHT22;2265;48.794;9.520;2024-02-26T13:54:57;14.70;98.00
4505;DHT22;2265;48.794;9.520;2024-02-26T13:57:27;14.70;98.00
4505;DHT22;2265;48.794;9.520;2024-02-26T13:59:55;14.70;98.00
4505;DHT22;2265;48.794;9.520;2024-02-26T14:02:22;14.80;98.00
4505;DHT22;2265;48.794;9.520;2024-02-26T14:04:49;14.90;98.00
4505;DHT22;2265;48.794;9.520;2024-02-26T14:07:16;14.90;98.00
4505;DHT22;2265;48.794;9.520;2024-02-26T14:09:43;14.90;98.00
4505;DHT22;2265;48.794;9.520;2024-02-26T14:12:12;15.00;98.00
4505;DHT22;2265;48.794;9.520;2024-02-26T14:14:40;15.00;98.00
4505;DHT22;2265;48.794;9.520;2024-02-26T14:17:08;15.20;98.00
4505;DHT22;2265;48.794;9.520;2024-02-26T14:19:35;15.50;98.00
4505;DHT22;2265;48.794;9.520;2024-02-26T14:22:05;15.60;98.00
4505;DHT22;2265;48.794;9.520;2024-02-26T14:24:32;15.80;98.00
4505;DHT22;2265;48.794;9.520;2024-02-26T14:27:02;16.00;98.00
4505;DHT22;2265;48.794;9.520;2024-02-26T14:29:30;16.10;98.00
4505;DHT22;2265;48.794;9.520;2024-02-26T14:31:58;16.40;98.00
4505;DHT22;2265;48.794;9.520;2024-02-26T14:34:27;16.50;98.00
4505;DHT22;2265;48.794;9.520;2024-02-26T14:36:56;16.80;98.00
4505;DHT22;2265;48.794;9.520;2024-02-26T14:39:24;16.90;98.00
4505;DHT22;2265;48.794;9.520;2024-02-26T14:41:53;17.10;98.00
4505;DHT22;2265;48.794;9.520;2024-02-26T14:44:20;17.10;98.00
4505;DHT22;2265;48.794;9.520;2024-02-26T14:46:48;17.30;98.00
4505;DHT22;2265;48.794;9.520;2024-02-26T14:49:16;17.50;98.00
4505;DHT22;2265;48.794;9.520;2024-02-26T14:51:44;17.70;98.00
4505;DHT22;2265;48.794;9.520;2024-02-26T14:54:11;17.60;98.00
4505;DHT22;2265;48.794;9.520;2024-02-26T14:56:40;17.30;98.00
4505;DHT22;2265;48.794;9.520;2024-02-26T14:59:07;17.00;98.00
4505;DHT22;2265;48.794;9.520;2024-02-26T15:01:34;16.70;98.00
4505;DHT22;2265;48.794;9.520;2024-02-26T15:04:03;16.50;98.00
4505;DHT22;2265;48.794;9.520;2024-02-26T15:06:31;16.40;98.00
4505;DHT22;2265;48.794;9.520;2024-02-26T15:09:00;16.10;98.00
4505;DHT22;2265;48.794;9.520;2024-02-26T15:11:29;15.80;98.00
4505;DHT22;2265;48.794;9.520;2024-02-26T15:13:56;15.50;98.00
4505;DHT22;2265;48.794;9.520;2024-02-26T15:16:23;15.40;98.00
4505;DHT22;2265;48.794;9.520;2024-02-26T15:18:50;15.20;98.00
4505;DHT22;2265;48.794;9.520;2024-02-26T15:21:17;15.00;98.00
4505;DHT22;2265;48.794;9.520;2024-02-26T15:23:46;14.90;98.00
4505;DHT22;2265;48.794;9.520;2024-02-26T15:26:14;14.70;98.00
4505;DHT22;2265;48.794;9.520;2024-02-26T15:28:42;14.50;98.00
4505;DHT22;2265;48.794;9.520;2024-02-26T15:31:10;14.40;98.00
4505;DHT22;2265;48.794;9.520;2024-02-26T15:33:37;14.40;98.00
4505;DHT22;2265;48.794;9.520;2024-02-26T15:36:04;14.20;98.00
4505;DHT22;2265;48.794;9.520;2024-02-26T15:38:35;14.10;98.00
4505;DHT22;2265;48.794;9.520;2024-02-26T15:41:11;14.00;98.00
4505;DHT22;2265;48.794;9.520;2024-02-26T15:43:39;14.00;98.00
4505;DHT22;2265;48.794;9.520;2024-02-26T15:46:06;14.00;98.00
4505;DHT22;2265;48.794;9.520;2024-02-26T15:48:35;13.90;98.00
4505;DHT22;2265;48.794;9.520;2024-02-26T15:51:05;13.80;98.00
4505;DHT22;2265;48.794;9.520;2024-02-26T15:53:32;13.80;98.00
4505;DHT22;2265;48.794;9.520;2024-02-26T15:55:59;13.60;98.00
4505;DHT22;2265;48.794;9.520;2024-02-26T15:58:28;13.60;98.00
4505;DHT22;2265;48.794;9.520;2024-02-26T16:00:55;13.50;98.00
4505;DHT22;2265;48.794;9.520;2024-02-26T16:03:22;13.40;98.00
4505;DHT22;2265;48.794;9.520;2024-02-26T16:05:49;13.40;98.00
4505;DHT22;2265;48.794;9.520;2024-02-26T16:08:19;13.20;98.00
4505;DHT22;2265;48.794;9.520;2024-02-26T16:10:47;13.10;98.00
4505;DHT22;2265;48.794;9.520;2024-02-26T16:13:15;13.00;98.00
4505;DHT22;2265;48.794;9.520;2024-02-26T16:15:48;13.00;98.00
4505;DHT22;2265;48.794;9.520;2024-02-26T16:18:17;13.00;98.00